Time;durP1;ratioP1;P1;durP2;ratioP2;P2;SDS_P1;SDS_P2;PMS_P1;PMS_P2;Temp;Humidity;BMP_temperature;BMP_pressure;BME280_temperature;BME280_humidity;BME280_pressure;Samples;Min_cycle;Max_cycle;Signal;HPM_P1;HPM_P2
2023/09/20 00:00:37;;;;;;;12.27;1.90;;;;;;;;;;5003610;28;20869;-79
2023/09/20 00:03:06;;;;;;;9.43;1.80;;;;;;;;;;5003136;28;20884;-76
2023/09/20 00:05:39;;;;;;;6.90;1.20;;;;;;;;;;5001452;28;20543;-78
2023/09/20 00:08:07;;;;;;;11.67;1.57;;;;;;;;;;5000767;28;20464;-76
2023/09/20 00:10:36;;;;;;;7.30;1.70;;;;;;;;;;5002766;28;20455;-77
2023/09/20 00:13:04;;;;;;;7.63;1.40;;;;;;;;;;4998811;28;20468;-77
2023/09/20 00:15:32;;;;;;;8.23;1.80;;;;;;;;;;5000380;28;20460;-76
2023/09/20 00:18:01;;;;;;;7.90;1.43;;;;;;;;;;5001623;28;21037;-77
2023/09/20 00:20:28;;;;;;;6.80;1.47;;;;;;;;;;5001862;28;20472;-76
2023/09/20 00:23:04;;;;;;;8.43;1.67;;;;;;;;;;5001708;28;20463;-78
2023/09/20 00:25:32;;;;;;;7.80;1.57;;;;;;;;;;5002032;28;20483;-78
2023/09/20 00:28:00;;;;;;;5.97;1.90;;;;;;;;;;5003043;28;20451;-77
2023/09/20 00:30:30;;;;;;;6.10;1.20;;;;;;;;;;5002081;28;20456;-77
2023/09/20 00:33:01;;;;;;;9.03;1.47;;;;;;;;;;5003191;28;20456;-79
2023/09/20 00:35:29;;;;;;;11.00;1.40;;;;;;;;;;5004214;28;20907;-77
2023/09/20 00:37:59;;;;;;;7.50;1.20;;;;;;;;;;5003639;28;20694;-76
2023/09/20 00:43:31;;;;;;;7.67;1.67;;;;;;;;;;5011839;28;20458;-76
2023/09/20 00:46:06;;;;;;;9.63;1.60;;;;;;;;;;5022678;28;20549;-77
2023/09/20 00:48:35;;;;;;;7.90;1.80;;;;;;;;;;5007777;28;20522;-79
2023/09/20 00:51:04;;;;;;;6.80;2.23;;;;;;;;;;5004856;28;20811;-77
2023/09/20 00:53:33;;;;;;;6.90;1.77;;;;;;;;;;5003724;28;20450;-78
2023/09/20 00:56:03;;;;;;;6.10;1.30;;;;;;;;;;5006886;28;20724;-77
2023/09/20 00:58:34;;;;;;;7.30;1.70;;;;;;;;;;5005595;28;20860;-76
2023/09/20 01:01:03;;;;;;;6.70;1.50;;;;;;;;;;5003712;28;20457;-77
2023/09/20 01:03:34;;;;;;;7.97;1.37;;;;;;;;;;5002391;28;20444;-76
2023/09/20 01:06:04;;;;;;;5.83;1.30;;;;;;;;;;5001921;28;20582;-76
2023/09/20 01:08:34;;;;;;;8.80;1.83;;;;;;;;;;4999706;28;20543;-76
2023/09/20 01:11:02;;;;;;;7.23;1.63;;;;;;;;;;5000722;28;20505;-78
2023/09/20 01:13:30;;;;;;;6.50;1.40;;;;;;;;;;4999922;28;20801;-77
2023/09/20 01:16:01;;;;;;;8.77;1.23;;;;;;;;;;5000882;28;20888;-76
2023/09/20 01:18:29;;;;;;;6.50;1.43;;;;;;;;;;5001555;28;20723;-77
2023/09/20 01:20:57;;;;;;;6.90;1.33;;;;;;;;;;5001619;28;20542;-77
2023/09/20 01:23:29;;;;;;;6.40;1.30;;;;;;;;;;5002703;28;20776;-78
2023/09/20 01:25:57;;;;;;;6.73;1.37;;;;;;;;;;5002445;28;20460;-76
2023/09/20 01:28:28;;;;;;;5.70;1.33;;;;;;;;;;5004000;28;20795;-78
2023/09/20 01:30:58;;;;;;;8.67;2.27;;;;;;;;;;5004376;28;20480;-77
2023/09/20 01:33:26;;;;;;;5.93;1.60;;;;;;;;;;5003228;28;20602;-77
2023/09/20 01:35:54;;;;;;;6.30;1.40;;;;;;;;;;5001603;28;20472;-77
2023/09/20 01:38:26;;;;;;;7.40;2.07;;;;;;;;;;5003184;28;20461;-77
2023/09/20 01:43:59;;;;;;;7.17;1.53;;;;;;;;;;5007152;28;20470;-78
2023/09/20 01:46:27;;;;;;;7.00;1.40;;;;;;;;;;5024307;28;20487;-77
2023/09/20 01:48:55;;;;;;;7.20;1.90;;;;;;;;;;5026226;28;20497;-78
2023/09/20 01:51:26;;;;;;;6.83;1.40;;;;;;;;;;5024810;28;20463;-78
2023/09/20 01:53:54;;;;;;;8.13;1.63;;;;;;;;;;5022298;28;20513;-77
2023/09/20 01:56:23;;;;;;;8.93;1.67;;;;;;;;;;5026614;28;20795;-76
2023/09/20 01:58:52;;;;;;;8.23;1.57;;;;;;;;;;5024538;28;20585;-78
2023/09/20 02:01:21;;;;;;;11.47;2.13;;;;;;;;;;5021867;28;20651;-77
2023/09/20 02:03:50;;;;;;;7.97;1.40;;;;;;;;;;5021445;28;20447;-77
2023/09/20 02:06:19;;;;;;;6.30;2.27;;;;;;;;;;5022875;28;20784;-78
2023/09/20 02:08:48;;;;;;;6.27;1.40;;;;;;;;;;5021953;28;20483;-76
2023/09/20 02:11:17;;;;;;;7.00;1.70;;;;;;;;;;5005267;28;20459;-78
2023/09/20 02:13:46;;;;;;;5.83;1.50;;;;;;;;;;5023626;28;20573;-75
2023/09/20 02:16:14;;;;;;;6.63;1.30;;;;;;;;;;5022645;28;20501;-76
2023/09/20 02:18:44;;;;;;;9.73;2.03;;;;;;;;;;5021437;28;20468;-76
2023/09/20 02:21:13;;;;;;;7.17;1.50;;;;;;;;;;5023285;28;20467;-78
2023/09/20 02:23:41;;;;;;;10.40;2.03;;;;;;;;;;5021323;28;20455;-77
2023/09/20 02:26:10;;;;;;;7.35;1.90;;;;;;;;;;5023597;28;20806;-77
2023/09/20 02:28:38;;;;;;;8.40;1.43;;;;;;;;;;5022515;28;20710;-77
2023/09/20 02:31:11;;;;;;;5.70;1.17;;;;;;;;;;5023880;28;20913;-78
2023/09/20 02:33:39;;;;;;;7.57;2.00;;;;;;;;;;5021542;28;20497;-77
2023/09/20 02:36:11;;;;;;;7.20;1.50;;;;;;;;;;5020377;28;20808;-76
2023/09/20 02:38:40;;;;;;;7.60;1.53;;;;;;;;;;5019408;28;20486;-77
2023/09/20 02:52:49;;;;;;;8.20;1.97;;;;;;;;;;5006329;28;20859;-74
2023/09/20 02:55:29;;;;;;;7.70;1.80;;;;;;;;;;5015459;28;20461;-76
2023/09/20 02:58:00;;;;;;;9.10;1.83;;;;;;;;;;5010046;28;20522;-75
2023/09/20 03:00:31;;;;;;;7.47;1.90;;;;;;;;;;4996154;28;20456;-74
2023/09/20 03:03:09;;;;;;;7.90;1.57;;;;;;;;;;5026240;28;20494;-75
2023/09/20 03:08:27;;;;;;;6.80;1.83;;;;;;;;;;5036634;28;20486;-75
2023/09/20 03:11:18;;;;;;;7.63;1.60;;;;;;;;;;5039391;28;20462;-74
2023/09/20 03:13:50;;;;;;;7.80;1.37;;;;;;;;;;5015674;28;20479;-75
2023/09/20 03:16:22;;;;;;;5.20;1.33;;;;;;;;;;5018727;28;20619;-75
2023/09/20 03:19:00;;;;;;;7.50;1.33;;;;;;;;;;5017830;28;20542;-74
2023/09/20 03:21:29;;;;;;;6.33;1.90;;;;;;;;;;5019058;28;20461;-74
2023/09/20 03:24:07;;;;;;;7.43;1.43;;;;;;;;;;5019861;28;20479;-75
2023/09/20 03:26:39;;;;;;;6.70;1.70;;;;;;;;;;5012433;28;20447;-74
2023/09/20 03:29:23;;;;;;;6.70;1.67;;;;;;;;;;5018413;28;20494;-74
2023/09/20 03:31:55;;;;;;;9.23;1.60;;;;;;;;;;5022121;28;20463;-74
2023/09/20 03:34:26;;;;;;;7.43;1.63;;;;;;;;;;5023329;28;20453;-76
2023/09/20 03:36:57;;;;;;;7.50;1.50;;;;;;;;;;5022643;28;20756;-73
2023/09/20 03:39:30;;;;;;;8.20;1.97;;;;;;;;;;5023379;28;20529;-76
2023/09/20 03:49:47;;;;;;;6.07;1.30;;;;;;;;;;5693398;23;20908;-76
2023/09/20 03:52:18;;;;;;;10.77;1.80;;;;;;;;;;4982722;28;20543;-75
2023/09/20 03:54:50;;;;;;;7.37;1.80;;;;;;;;;;4981298;28;20500;-75
2023/09/20 03:57:24;;;;;;;7.03;1.87;;;;;;;;;;4978774;28;20531;-74
2023/09/20 04:02:44;;;;;;;7.30;1.37;;;;;;;;;;4968916;28;20468;-76
2023/09/20 04:05:19;;;;;;;7.13;1.40;;;;;;;;;;4979893;28;20460;-75
2023/09/20 04:07:51;;;;;;;5.53;1.67;;;;;;;;;;4981470;28;20592;-75
2023/09/20 04:10:27;;;;;;;7.17;1.43;;;;;;;;;;4980955;28;20488;-76
2023/09/20 04:15:49;;;;;;;7.90;2.03;;;;;;;;;;4981136;28;21044;-76
2023/09/20 04:18:19;;;;;;;8.10;1.43;;;;;;;;;;4978497;28;20469;-76
2023/09/20 04:21:06;;;;;;;6.50;1.50;;;;;;;;;;4965625;28;20786;-74
2023/09/20 04:23:43;;;;;;;6.13;1.67;;;;;;;;;;4964727;28;20461;-76
2023/09/20 04:26:37;;;;;;;8.90;1.60;;;;;;;;;;4992386;28;20501;-76
2023/09/20 04:29:07;;;;;;;7.77;1.63;;;;;;;;;;4999371;28;20463;-75
2023/09/20 04:31:52;;;;;;;6.20;1.37;;;;;;;;;;5000904;28;20772;-75
2023/09/20 04:34:25;;;;;;;6.17;1.70;;;;;;;;;;4999372;28;20456;-75
2023/09/20 04:36:56;;;;;;;6.40;1.33;;;;;;;;;;4997971;28;20796;-75
2023/09/20 04:39:33;;;;;;;5.67;1.37;;;;;;;;;;4998960;28;20460;-73
2023/09/20 04:44:38;;;;;;;6.57;2.13;;;;;;;;;;1478824;26;20967;-77
2023/09/20 04:47:06;;;;;;;8.07;1.80;;;;;;;;;;5038613;28;20777;-78
2023/09/20 04:49:34;;;;;;;7.47;1.90;;;;;;;;;;5038955;28;20446;-75
2023/09/20 04:52:04;;;;;;;9.60;1.80;;;;;;;;;;5039688;28;20939;-75
2023/09/20 04:54:33;;;;;;;6.50;1.67;;;;;;;;;;5039683;28;20461;-76
2023/09/20 04:57:01;;;;;;;5.20;1.17;;;;;;;;;;5038414;28;20527;-77
2023/09/20 04:59:31;;;;;;;10.30;1.97;;;;;;;;;;5038870;28;20759;-77
2023/09/20 05:02:02;;;;;;;9.60;2.07;;;;;;;;;;5037987;28;20446;-77
2023/09/20 05:04:34;;;;;;;6.73;1.67;;;;;;;;;;5035110;28;20446;-78
2023/09/20 05:07:05;;;;;;;9.80;2.13;;;;;;;;;;5034752;28;20533;-78
2023/09/20 05:09:34;;;;;;;8.40;1.67;;;;;;;;;;5036899;28;20462;-79
2023/09/20 05:12:02;;;;;;;10.33;2.17;;;;;;;;;;5037103;28;20459;-77
2023/09/20 05:14:30;;;;;;;6.33;1.70;;;;;;;;;;5034633;28;20458;-76
2023/09/20 05:17:01;;;;;;;7.67;1.80;;;;;;;;;;5036028;28;20438;-77
2023/09/20 05:19:29;;;;;;;5.97;1.80;;;;;;;;;;5034288;28;20667;-77
2023/09/20 05:21:58;;;;;;;9.00;1.90;;;;;;;;;;5035713;28;20572;-74
2023/09/20 05:24:26;;;;;;;9.87;3.13;;;;;;;;;;5033958;28;20458;-77
2023/09/20 05:26:54;;;;;;;8.13;1.63;;;;;;;;;;5031548;28;20593;-75
2023/09/20 05:29:22;;;;;;;7.40;1.37;;;;;;;;;;5035384;28;20446;-77
2023/09/20 05:31:51;;;;;;;8.43;2.73;;;;;;;;;;5035781;28;20474;-76
2023/09/20 05:34:21;;;;;;;8.20;2.23;;;;;;;;;;5032867;28;20682;-76
2023/09/20 05:36:52;;;;;;;6.87;2.23;;;;;;;;;;5034245;28;20870;-78
2023/09/20 05:39:20;;;;;;;6.80;1.80;;;;;;;;;;5032934;28;20873;-76
2023/09/20 05:44:33;;;;;;;5.93;2.03;;;;;;;;;;5046957;28;20760;-77
2023/09/20 05:47:03;;;;;;;9.30;2.40;;;;;;;;;;5064197;28;20457;-77
2023/09/20 05:49:54;;;;;;;7.37;2.10;;;;;;;;;;5055998;28;20914;-79
2023/09/20 05:52:40;;;;;;;8.30;1.80;;;;;;;;;;5065860;28;20501;-77
2023/09/20 05:55:13;;;;;;;6.47;1.70;;;;;;;;;;5018942;28;20511;-77
2023/09/20 05:57:45;;;;;;;5.73;1.70;;;;;;;;;;5014062;28;20985;-78
2023/09/20 06:00:21;;;;;;;6.67;2.10;;;;;;;;;;5016202;28;20882;-76
2023/09/20 06:08:47;;;;;;;8.63;1.97;;;;;;;;;;5030970;28;20757;-75
2023/09/20 06:17:42;;;;;;;11.27;2.00;;;;;;;;;;5019781;28;20481;-74
2023/09/20 06:35:15;;;;;;;7.87;2.33;;;;;;;;;;5040231;28;20508;-76
2023/09/20 06:46:57;;;;;;;8.03;2.23;;;;;;;;;;4974692;28;20459;-74
2023/09/20 06:49:42;;;;;;;7.87;2.07;;;;;;;;;;5032629;28;20505;-74
2023/09/20 06:52:43;;;;;;;6.30;2.27;;;;;;;;;;5041326;28;20897;-75
2023/09/20 06:55:26;;;;;;;10.83;2.17;;;;;;;;;;5039202;28;20445;-75
2023/09/20 07:17:44;;;;;;;7.70;2.40;;;;;;;;;;4953295;29;20481;-74
2023/09/20 07:26:21;;;;;;;6.50;2.10;;;;;;;;;;4998933;28;20468;-75
2023/09/20 07:59:19;;;;;;;9.63;2.07;;;;;;;;;;5035580;28;20529;-77
2023/09/20 08:02:04;;;;;;;;;;;;;;;;;;;;;
2023/09/20 08:10:43;;;;;;;11.30;5.93;;;;;;;;;;5043779;28;20550;-75
2023/09/20 08:16:02;;;;;;;7.40;2.00;;;;;;;;;;5036751;28;20454;-77
2023/09/20 08:22:05;;;;;;;9.90;2.33;;;;;;;;;;5033879;28;20449;-77
2023/09/20 09:01:12;;;;;;;12.43;2.20;;;;;;;;;;5019544;28;20777;-78
2023/09/20 09:30:57;;;;;;;11.13;2.27;;;;;;;;;;4900446;29;20480;-79
2023/09/20 09:40:14;;;;;;;8.10;2.90;;;;;;;;;;5041230;28;20480;-78
2023/09/20 09:52:08;;;;;;;7.33;1.80;;;;;;;;;;5022417;28;20211;-77
2023/09/20 10:06:37;;;;;;;6.93;1.87;;;;;;;;;;5045719;23;20518;-75
2023/09/20 10:09:35;;;;;;;9.00;2.87;;;;;;;;;;4989462;28;20469;-76
2023/09/20 10:12:07;;;;;;;8.50;3.30;;;;;;;;;;4994127;28;20489;-76
2023/09/20 10:21:25;;;;;;;8.63;3.03;;;;;;;;;;5295736;23;20471;-80
2023/09/20 10:59:55;;;;;;;6.50;2.37;;;;;;;;;;4957992;29;20269;-77
2023/09/20 11:08:24;;;;;;;;;;;;;;;;;;;;;
2023/09/20 11:20:24;;;;;;;8.47;3.10;;;;;;;;;;4999093;28;20566;-76
2023/09/20 11:22:58;;;;;;;6.20;2.70;;;;;;;;;;5009666;28;20466;-76
2023/09/20 11:28:37;;;;;;;5.20;2.10;;;;;;;;;;5016283;28;20483;-78
2023/09/20 11:37:46;;;;;;;9.97;1.90;;;;;;;;;;4992223;28;20457;-77
2023/09/20 11:43:58;;;;;;;6.23;2.70;;;;;;;;;;5018231;28;20564;-75
2023/09/20 11:46:47;;;;;;;6.23;2.37;;;;;;;;;;5029901;28;20458;-77
2023/09/20 11:55:19;;;;;;;7.00;3.30;;;;;;;;;;4993029;28;20200;-75
2023/09/20 11:58:25;;;;;;;8.23;4.27;;;;;;;;;;4995510;28;20484;-74
2023/09/20 12:01:08;;;;;;;6.03;2.20;;;;;;;;;;4985314;28;20488;-75
2023/09/20 12:03:45;;;;;;;5.50;2.47;;;;;;;;;;4993735;28;20782;-74
2023/09/20 12:09:37;;;;;;;6.10;2.00;;;;;;;;;;4959472;28;20504;-74
2023/09/20 12:15:38;;;;;;;4.40;2.30;;;;;;;;;;5006520;28;20519;-74
2023/09/20 12:18:14;;;;;;;5.20;2.00;;;;;;;;;;4991720;28;20553;-75
2023/09/20 12:20:48;;;;;;;7.43;2.33;;;;;;;;;;5019999;28;20813;-73
2023/09/20 12:23:35;;;;;;;10.87;2.90;;;;;;;;;;5019086;28;20438;-76
2023/09/20 12:26:23;;;;;;;;;;;;;;;;;;;;;
2023/09/20 12:28:56;;;;;;;7.47;2.00;;;;;;;;;;5014748;28;20470;-74
2023/09/20 12:34:24;;;;;;;5.40;2.30;;;;;;;;;;5015063;28;20489;-74
2023/09/20 12:45:33;;;;;;;6.57;2.10;;;;;;;;;;5009823;28;20496;-80
2023/09/20 12:48:01;;;;;;;5.33;2.10;;;;;;;;;;5016935;28;20824;-78
2023/09/20 12:50:33;;;;;;;10.90;3.27;;;;;;;;;;5011691;28;20471;-81
2023/09/20 12:53:02;;;;;;;5.30;2.43;;;;;;;;;;5021007;28;20462;-77
2023/09/20 12:55:31;;;;;;;6.57;1.93;;;;;;;;;;5020775;28;20725;-77
2023/09/20 12:58:00;;;;;;;5.30;2.20;;;;;;;;;;5022579;28;20583;-78
2023/09/20 13:00:29;;;;;;;7.00;2.60;;;;;;;;;;5022995;28;20519;-79
2023/09/20 13:03:08;;;;;;;5.40;2.33;;;;;;;;;;5023138;28;20499;-80
2023/09/20 13:05:37;;;;;;;9.27;3.70;;;;;;;;;;5020855;28;20467;-80
2023/09/20 13:08:13;;;;;;;9.73;3.73;;;;;;;;;;5002175;28;20478;-81
2023/09/20 13:10:56;;;;;;;9.30;2.70;;;;;;;;;;5008424;28;20516;-78
2023/09/20 13:13:25;;;;;;;4.77;2.30;;;;;;;;;;5022655;28;20455;-79
2023/09/20 13:15:53;;;;;;;4.77;2.17;;;;;;;;;;5022220;28;20461;-79
2023/09/20 13:18:24;;;;;;;5.67;2.10;;;;;;;;;;5019723;28;20505;-81
2023/09/20 13:20:54;;;;;;;4.73;1.97;;;;;;;;;;5018882;28;20491;-81
2023/09/20 13:23:26;;;;;;;6.33;2.03;;;;;;;;;;5021610;28;20434;-80
2023/09/20 13:26:00;;;;;;;8.03;1.90;;;;;;;;;;5021428;28;20467;-78
2023/09/20 13:28:41;;;;;;;9.00;2.60;;;;;;;;;;5020278;28;20455;-77
2023/09/20 13:31:15;;;;;;;4.40;1.80;;;;;;;;;;5019579;28;20455;-80
2023/09/20 13:33:48;;;;;;;5.93;2.37;;;;;;;;;;5020121;28;20454;-79
2023/09/20 13:36:15;;;;;;;5.03;2.00;;;;;;;;;;5019759;28;20875;-78
2023/09/20 13:38:43;;;;;;;5.70;2.53;;;;;;;;;;5020143;28;20483;-79
2023/09/20 13:41:12;;;;;;;6.40;2.20;;;;;;;;;;5020205;28;20752;-79
2023/09/20 13:43:42;;;;;;;5.50;2.53;;;;;;;;;;5020662;28;20459;-80
2023/09/20 13:46:17;;;;;;;9.20;4.00;;;;;;;;;;5023036;28;20525;-78
2023/09/20 13:48:49;;;;;;;7.13;2.20;;;;;;;;;;5024372;28;20468;-79
2023/09/20 13:51:19;;;;;;;7.27;2.10;;;;;;;;;;5013970;28;20482;-80
2023/09/20 13:53:49;;;;;;;12.33;3.07;;;;;;;;;;5025634;28;20867;-78
2023/09/20 13:56:32;;;;;;;7.00;2.60;;;;;;;;;;5008182;28;20452;-78
2023/09/20 13:59:12;;;;;;;7.57;3.70;;;;;;;;;;5007558;28;20498;-82
2023/09/20 14:01:41;;;;;;;8.00;4.70;;;;;;;;;;5023564;28;20481;-79
2023/09/20 14:04:12;;;;;;;5.53;2.87;;;;;;;;;;5031736;28;20486;-81
2023/09/20 14:06:59;;;;;;;5.00;2.87;;;;;;;;;;5025193;28;20477;-81
2023/09/20 14:09:30;;;;;;;7.20;2.50;;;;;;;;;;5032040;28;20470;-77
2023/09/20 14:12:18;;;;;;;5.73;2.30;;;;;;;;;;5022268;28;20483;-80
2023/09/20 14:14:50;;;;;;;4.77;2.03;;;;;;;;;;5019937;28;20479;-80
2023/09/20 14:17:19;;;;;;;4.37;1.80;;;;;;;;;;5020304;28;20431;-81
2023/09/20 14:19:51;;;;;;;5.90;2.63;;;;;;;;;;5023046;28;20483;-78
2023/09/20 14:22:19;;;;;;;4.10;1.70;;;;;;;;;;5019221;28;20463;-79
2023/09/20 14:24:53;;;;;;;6.33;2.07;;;;;;;;;;5018431;28;20455;-79
2023/09/20 14:27:23;;;;;;;4.53;2.00;;;;;;;;;;5026905;28;20494;-78
2023/09/20 14:29:54;;;;;;;4.87;2.20;;;;;;;;;;5020951;28;20890;-80
2023/09/20 14:32:22;;;;;;;7.40;2.70;;;;;;;;;;5020898;28;20459;-79
2023/09/20 14:34:59;;;;;;;4.90;2.47;;;;;;;;;;5023365;28;20486;-79
2023/09/20 14:37:38;;;;;;;5.87;3.23;;;;;;;;;;5021716;28;20886;-80
2023/09/20 14:40:21;;;;;;;5.47;1.90;;;;;;;;;;5021835;28;20562;-78
2023/09/20 14:42:51;;;;;;;7.20;3.07;;;;;;;;;;5019011;28;20467;-79
2023/09/20 14:45:29;;;;;;;5.30;2.27;;;;;;;;;;5019737;28;20461;-78
2023/09/20 14:48:02;;;;;;;4.97;1.80;;;;;;;;;;5001647;28;20463;-79
2023/09/20 14:54:08;;;;;;;5.87;2.10;;;;;;;;;;5016958;28;20482;-81
2023/09/20 14:56:46;;;;;;;5.70;3.20;;;;;;;;;;5020452;28;20529;-81
2023/09/20 14:59:15;;;;;;;4.57;1.43;;;;;;;;;;5019823;28;20471;-83
2023/09/20 15:01:56;;;;;;;11.77;4.83;;;;;;;;;;5022000;28;20463;-82
2023/09/20 15:04:47;;;;;;;5.40;2.60;;;;;;;;;;5020073;28;20531;-82
2023/09/20 17:44:49;;;;;;;9.90;3.23;;;;;;;;;;3357024;26;20591;-74
2023/09/20 17:47:32;;;;;;;8.27;3.40;;;;;;;;;;5051274;28;20465;-74
2023/09/20 17:50:21;;;;;;;7.10;2.20;;;;;;;;;;5054180;28;20446;-74
2023/09/20 17:53:15;;;;;;;8.50;3.10;;;;;;;;;;5041864;28;20487;-74
2023/09/20 17:56:03;;;;;;;6.70;2.37;;;;;;;;;;5029556;28;20487;-74
2023/09/20 18:01:40;;;;;;;10.13;3.77;;;;;;;;;;5012619;28;20787;-72
2023/09/20 18:04:21;;;;;;;7.80;2.60;;;;;;;;;;5009361;28;20448;-73
2023/09/20 18:07:09;;;;;;;7.80;2.70;;;;;;;;;;5009644;28;20726;-74
2023/09/20 18:09:50;;;;;;;7.70;3.13;;;;;;;;;;4999043;28;20494;-74
2023/09/20 18:12:34;;;;;;;11.10;3.90;;;;;;;;;;5032984;28;20478;-72
2023/09/20 18:15:10;;;;;;;8.60;3.40;;;;;;;;;;5020237;28;20974;-74
2023/09/20 18:23:35;;;;;;;12.50;4.27;;;;;;;;;;4949890;29;20430;-73
2023/09/20 18:26:22;;;;;;;11.50;4.20;;;;;;;;;;4991121;28;20537;-74
2023/09/20 18:28:55;;;;;;;10.43;4.30;;;;;;;;;;5012155;28;20470;-74
2023/09/20 18:31:31;;;;;;;9.40;2.90;;;;;;;;;;5011848;28;20518;-74
2023/09/20 18:34:03;;;;;;;11.77;3.40;;;;;;;;;;5011073;28;20997;-74
2023/09/20 18:36:33;;;;;;;11.10;2.80;;;;;;;;;;5005737;28;20455;-74
2023/09/20 18:39:22;;;;;;;13.00;3.87;;;;;;;;;;5009834;28;20447;-75
2023/09/20 18:47:07;;;;;;;9.77;2.60;;;;;;;;;;5026035;28;20459;-73
2023/09/20 18:49:41;;;;;;;13.33;3.60;;;;;;;;;;5019261;28;20486;-73
2023/09/20 18:52:28;;;;;;;9.70;2.67;;;;;;;;;;5029620;28;20870;-73
2023/09/20 18:57:54;;;;;;;8.60;2.30;;;;;;;;;;5034827;28;20524;-74
2023/09/20 19:00:30;;;;;;;15.87;6.20;;;;;;;;;;5038544;28;20951;-75
2023/09/20 19:05:56;;;;;;;16.43;5.67;;;;;;;;;;5033401;28;20493;-73
2023/09/20 19:11:30;;;;;;;8.43;2.50;;;;;;;;;;5013256;28;20490;-75
2023/09/20 19:14:25;;;;;;;;;;;;;;;;;;;;;
2023/09/20 19:17:06;;;;;;;16.37;7.57;;;;;;;;;;5024825;28;20469;-73
2023/09/20 19:20:11;;;;;;;10.80;3.37;;;;;;;;;;5014763;28;20536;-74
2023/09/20 19:23:16;;;;;;;12.03;4.43;;;;;;;;;;5003170;28;20454;-73
2023/09/20 19:26:06;;;;;;;11.80;4.87;;;;;;;;;;5015576;28;20494;-73
2023/09/20 19:35:22;;;;;;;8.10;2.47;;;;;;;;;;4996319;28;20459;-73
2023/09/20 19:38:17;;;;;;;8.93;2.63;;;;;;;;;;5015474;28;20474;-75
2023/09/20 19:43:57;;;;;;;7.30;2.10;;;;;;;;;;2835046;23;20489;-78
2023/09/20 20:42:52;;;;;;;5.27;1.70;;;;;;;;;;4161436;23;20586;-79
2023/09/20 20:45:21;;;;;;;7.07;2.10;;;;;;;;;;5063986;28;20528;-79
2023/09/20 20:47:50;;;;;;;4.73;1.47;;;;;;;;;;5065843;28;20719;-79
2023/09/20 20:50:25;;;;;;;5.00;1.80;;;;;;;;;;5069374;28;20480;-80
2023/09/20 20:52:54;;;;;;;6.00;2.00;;;;;;;;;;5066784;28;20461;-79
2023/09/20 20:55:23;;;;;;;8.27;2.13;;;;;;;;;;5067006;28;20473;-79
2023/09/20 20:58:09;;;;;;;4.43;1.73;;;;;;;;;;5064648;28;20450;-79
2023/09/20 21:00:39;;;;;;;6.00;2.03;;;;;;;;;;5064471;28;20485;-78
2023/09/20 21:03:09;;;;;;;5.33;1.97;;;;;;;;;;5064239;28;20529;-79
2023/09/20 21:05:39;;;;;;;4.93;1.53;;;;;;;;;;5062720;28;20450;-77
2023/09/20 21:08:08;;;;;;;4.17;1.80;;;;;;;;;;5064360;28;20499;-79
2023/09/20 21:10:38;;;;;;;4.70;1.80;;;;;;;;;;5064760;28;20441;-78
2023/09/20 21:13:11;;;;;;;4.30;1.50;;;;;;;;;;5062896;28;20540;-78
2023/09/20 21:15:47;;;;;;;3.97;1.60;;;;;;;;;;5044279;28;20449;-80
2023/09/20 21:18:16;;;;;;;6.37;1.73;;;;;;;;;;5063675;28;20457;-80
2023/09/20 21:20:52;;;;;;;9.87;2.87;;;;;;;;;;5064927;28;20765;-78
2023/09/20 21:23:22;;;;;;;7.63;2.00;;;;;;;;;;5065935;28;20736;-79
2023/09/20 21:25:55;;;;;;;5.43;2.40;;;;;;;;;;5063795;28;20461;-79
2023/09/20 21:28:25;;;;;;;5.60;1.90;;;;;;;;;;5066274;28;20916;-80
2023/09/20 21:31:03;;;;;;;4.13;1.67;;;;;;;;;;5066181;28;20464;-78
2023/09/20 21:33:32;;;;;;;7.33;3.30;;;;;;;;;;5066615;28;20484;-78
2023/09/20 21:36:00;;;;;;;5.90;2.10;;;;;;;;;;5065321;28;20468;-78
2023/09/20 21:38:28;;;;;;;4.57;1.57;;;;;;;;;;5055871;28;20452;-78
2023/09/20 22:00:59;;;;;;;6.70;2.03;;;;;;;;;;5753733;23;20488;-73
2023/09/20 22:03:30;;;;;;;7.53;2.13;;;;;;;;;;4995319;28;20490;-73
2023/09/20 22:06:07;;;;;;;5.60;2.10;;;;;;;;;;4994967;28;20498;-73
2023/09/20 22:08:35;;;;;;;6.00;1.90;;;;;;;;;;4997354;28;20518;-74
2023/09/20 22:11:04;;;;;;;7.27;2.80;;;;;;;;;;4995864;28;20447;-74
2023/09/20 22:13:37;;;;;;;5.60;2.40;;;;;;;;;;4997333;28;20911;-74
2023/09/20 22:16:08;;;;;;;6.90;2.27;;;;;;;;;;4993428;28;20743;-74
2023/09/20 22:18:38;;;;;;;5.30;1.87;;;;;;;;;;4998002;28;20514;-72
2023/09/20 22:21:08;;;;;;;8.20;2.13;;;;;;;;;;4994413;28;20484;-72
2023/09/20 22:23:43;;;;;;;5.27;1.97;;;;;;;;;;4999271;28;20452;-74
2023/09/20 22:26:14;;;;;;;5.53;2.47;;;;;;;;;;4994825;28;20474;-72
2023/09/20 22:28:43;;;;;;;9.90;2.73;;;;;;;;;;4998432;28;20463;-74
2023/09/20 22:31:22;;;;;;;7.83;2.43;;;;;;;;;;4997301;28;20459;-73
2023/09/20 22:33:53;;;;;;;5.70;1.90;;;;;;;;;;4989352;28;20488;-74
2023/09/20 22:36:23;;;;;;;5.60;2.20;;;;;;;;;;4997631;28;20463;-72
2023/09/20 22:38:56;;;;;;;7.53;2.70;;;;;;;;;;4995522;28;21075;-74
2023/09/20 22:51:49;;;;;;;6.03;2.30;;;;;;;;;;5695396;23;20488;-74
2023/09/20 22:54:23;;;;;;;5.80;1.90;;;;;;;;;;4974860;28;20452;-74
2023/09/20 22:56:52;;;;;;;5.00;1.90;;;;;;;;;;4976918;28;20457;-75
2023/09/20 22:59:21;;;;;;;4.73;1.90;;;;;;;;;;4977744;28;20462;-74
2023/09/20 23:01:53;;;;;;;6.80;2.37;;;;;;;;;;4994360;28;20554;-74
2023/09/20 23:04:21;;;;;;;4.97;2.13;;;;;;;;;;4999770;28;20464;-75
2023/09/20 23:06:54;;;;;;;7.80;2.27;;;;;;;;;;4988060;28;20465;-73
2023/09/20 23:09:22;;;;;;;6.20;1.83;;;;;;;;;;4981424;28;20492;-74
2023/09/20 23:11:51;;;;;;;5.20;1.63;;;;;;;;;;4983226;28;20840;-74
2023/09/20 23:14:20;;;;;;;7.47;2.13;;;;;;;;;;4998089;28;20460;-75
2023/09/20 23:17:05;;;;;;;9.47;2.17;;;;;;;;;;5000857;28;20444;-74
2023/09/20 23:19:36;;;;;;;6.73;2.57;;;;;;;;;;4998652;28;20467;-74
2023/09/20 23:22:16;;;;;;;4.80;1.80;;;;;;;;;;5001427;28;20507;-74
2023/09/20 23:24:50;;;;;;;7.70;2.30;;;;;;;;;;4997854;28;20475;-75
2023/09/20 23:27:25;;;;;;;6.43;2.37;;;;;;;;;;4998894;28;20490;-75
2023/09/20 23:32:50;;;;;;;4.70;1.77;;;;;;;;;;4989199;28;20441;-74
2023/09/20 23:35:20;;;;;;;6.13;2.20;;;;;;;;;;4994435;28;20895;-75
2023/09/20 23:38:08;;;;;;;8.33;2.20;;;;;;;;;;4978279;28;20516;-73
2023/09/20 23:40:44;;;;;;;4.30;1.80;;;;;;;;;;4979580;28;20468;-74
2023/09/20 23:43:18;;;;;;;5.70;1.90;;;;;;;;;;4979480;28;20547;-75
2023/09/20 23:45:49;;;;;;;5.90;1.87;;;;;;;;;;4978713;28;20449;-74
2023/09/20 23:48:20;;;;;;;8.97;2.87;;;;;;;;;;4981712;28;20461;-74
2023/09/20 23:53:28;;;;;;;5.60;2.37;;;;;;;;;;4978778;28;20571;-73
2023/09/20 23:56:04;;;;;;;4.30;1.83;;;;;;;;;;4976780;28;20552;-73
2023/09/20 23:58:36;;;;;;;4.90;2.10;;;;;;;;;;4962004;29;20461;-74
